createdAt,value
2019-05-26T00:01:17.656Z,6.70
2019-05-26T00:03:50.348Z,7.87
2019-05-26T00:06:22.907Z,9.03
2019-05-26T00:08:55.615Z,8.38
2019-05-26T00:11:28.106Z,8.90
2019-05-26T00:14:02.355Z,10.80
2019-05-26T00:16:35.226Z,8.80
2019-05-26T00:19:08.205Z,9.40
2019-05-26T00:21:40.669Z,9.53
2019-05-26T00:24:13.345Z,10.05
2019-05-26T00:26:46.070Z,9.53
2019-05-26T00:29:19.087Z,7.30
2019-05-26T00:31:52.235Z,7.33
2019-05-26T00:34:24.876Z,6.78
2019-05-26T00:36:57.676Z,7.12
2019-05-26T00:39:30.434Z,7.17
2019-05-26T00:42:03.245Z,7.10
2019-05-26T00:44:35.995Z,6.37
2019-05-26T00:47:09.126Z,6.78
2019-05-26T00:49:41.675Z,6.70
2019-05-26T00:52:14.958Z,8.03
2019-05-26T00:54:47.647Z,7.45
2019-05-26T00:57:20.194Z,7.03
2019-05-26T00:59:53.003Z,7.12
2019-05-26T01:02:27.356Z,6.45
2019-05-26T01:05:00.215Z,7.58
2019-05-26T01:07:32.899Z,7.97
2019-05-26T01:10:05.967Z,7.97
2019-05-26T01:12:38.405Z,6.58
2019-05-26T01:15:11.503Z,6.22
2019-05-26T01:17:45.505Z,6.50
2019-05-26T01:20:18.180Z,6.05
2019-05-26T01:22:53.686Z,6.47
2019-05-26T01:25:25.235Z,6.03
2019-05-26T01:27:57.775Z,7.87
2019-05-26T01:30:37.968Z,6.85
2019-05-26T01:33:10.615Z,7.22
2019-05-26T01:35:43.737Z,6.35
2019-05-26T01:38:23.603Z,7.15
2019-05-26T01:40:51.315Z,6.45
2019-05-26T01:43:23.928Z,6.17
2019-05-26T01:45:56.552Z,5.97
2019-05-26T01:48:30.025Z,5.17
2019-05-26T01:51:02.787Z,7.50
2019-05-26T01:53:35.315Z,6.17
2019-05-26T01:56:07.946Z,6.47
2019-05-26T01:58:40.535Z,7.08
2019-05-26T02:01:13.455Z,7.00
2019-05-26T02:03:46.205Z,6.72
2019-05-26T02:06:20.475Z,7.65
2019-05-26T02:08:53.384Z,5.55
2019-05-26T02:11:26.068Z,6.22
2019-05-26T02:13:58.839Z,6.20
2019-05-26T02:16:31.715Z,5.85
2019-05-26T02:19:04.719Z,7.00
2019-05-26T02:21:37.485Z,5.60
2019-05-26T02:24:10.235Z,5.33
2019-05-26T02:26:42.986Z,5.55
2019-05-26T02:29:15.625Z,7.15
2019-05-26T02:31:48.505Z,7.83
2019-05-26T02:34:21.267Z,6.15
2019-05-26T02:36:53.767Z,6.60
2019-05-26T02:39:28.466Z,6.55
2019-05-26T02:42:01.405Z,6.17
2019-05-26T02:44:34.277Z,6.12
2019-05-26T02:47:09.829Z,8.23
2019-05-26T02:49:42.873Z,7.12
2019-05-26T02:52:15.958Z,7.17
2019-05-26T02:54:49.001Z,7.05
2019-05-26T02:57:22.127Z,5.70
2019-05-26T02:59:55.066Z,6.03
2019-05-26T03:02:28.359Z,5.80
2019-05-26T03:05:01.515Z,6.75
2019-05-26T03:07:36.738Z,5.80
2019-05-26T03:10:09.575Z,5.53
2019-05-26T03:12:44.568Z,6.15
2019-05-26T03:15:18.215Z,5.35
2019-05-26T03:17:52.797Z,5.22
2019-05-26T03:20:25.536Z,5.28
2019-05-26T03:23:01.497Z,5.05
2019-05-26T03:25:36.163Z,4.83
2019-05-26T03:28:08.996Z,5.05
2019-05-26T03:30:41.738Z,4.75
2019-05-26T03:33:14.629Z,4.10
2019-05-26T03:35:47.459Z,4.85
2019-05-26T03:38:20.336Z,5.25
2019-05-26T03:40:53.122Z,4.60
2019-05-26T03:43:25.907Z,5.20
2019-05-26T03:46:20.910Z,4.58
2019-05-26T03:48:53.617Z,4.67
2019-05-26T03:51:26.335Z,4.33
2019-05-26T03:53:58.718Z,4.50
2019-05-26T03:56:31.705Z,4.37
2019-05-26T03:59:04.167Z,4.37
2019-05-26T04:01:36.919Z,4.60
2019-05-26T04:04:09.597Z,4.58
2019-05-26T04:06:42.427Z,4.75
2019-05-26T04:09:15.891Z,4.60
2019-05-26T04:11:48.406Z,4.92
2019-05-26T04:14:20.912Z,5.17
2019-05-26T04:16:56.342Z,4.50
2019-05-26T04:19:27.897Z,4.62
2019-05-26T04:22:00.469Z,4.55
2019-05-26T04:24:33.487Z,4.47
2019-05-26T04:27:06.068Z,4.25
2019-05-26T04:29:38.663Z,4.75
2019-05-26T04:32:12.028Z,4.75
2019-05-26T04:34:44.894Z,4.15
2019-05-26T04:37:17.460Z,4.53
2019-05-26T04:39:50.035Z,4.62
2019-05-26T04:42:22.645Z,4.17
2019-05-26T04:44:55.210Z,4.33
2019-05-26T04:47:27.916Z,5.03
2019-05-26T04:50:01.158Z,4.25
2019-05-26T04:52:33.885Z,4.58
2019-05-26T04:55:06.469Z,4.67
2019-05-26T04:57:39.077Z,4.08
2019-05-26T05:00:11.806Z,5.20
2019-05-26T05:02:44.286Z,4.60
2019-05-26T05:05:16.776Z,4.25
2019-05-26T05:07:49.556Z,4.35
2019-05-26T05:10:22.035Z,4.30
2019-05-26T05:12:55.577Z,4.65
2019-05-26T05:15:28.211Z,4.70
2019-05-26T05:18:01.131Z,4.58
2019-05-26T05:20:33.669Z,4.28
2019-05-26T05:23:06.290Z,4.25
2019-05-26T05:25:38.866Z,3.90
2019-05-26T05:28:11.726Z,4.15
2019-05-26T05:30:44.274Z,4.55
2019-05-26T05:33:16.837Z,3.62
2019-05-26T05:35:49.361Z,4.20
2019-05-26T05:38:21.972Z,3.75
2019-05-26T05:40:59.470Z,3.77
2019-05-26T05:43:28.966Z,3.67
2019-05-26T05:46:01.617Z,3.62
2019-05-26T05:48:34.175Z,3.70
2019-05-26T05:51:06.732Z,3.42
2019-05-26T05:53:40.745Z,3.50
2019-05-26T05:56:13.260Z,3.72
2019-05-26T05:58:45.855Z,3.58
2019-05-26T06:01:18.425Z,3.08
2019-05-26T06:03:51.535Z,2.77
2019-05-26T06:06:23.955Z,3.35
2019-05-26T06:08:56.645Z,3.08
2019-05-26T06:11:29.256Z,3.25
2019-05-26T06:14:01.868Z,2.90
2019-05-26T06:16:35.425Z,2.80
2019-05-26T06:19:07.932Z,2.45
2019-05-26T06:21:40.585Z,2.77
2019-05-26T06:24:13.210Z,2.40
2019-05-26T06:26:45.855Z,2.58
2019-05-26T06:29:18.386Z,2.25
2019-05-26T06:31:51.021Z,2.42
2019-05-26T06:34:23.685Z,2.60
2019-05-26T06:36:56.336Z,2.15
2019-05-26T06:39:30.029Z,2.80
2019-05-26T06:42:02.895Z,2.65
2019-05-26T06:44:52.188Z,2.95
2019-05-26T06:47:09.955Z,2.30
2019-05-26T06:49:42.486Z,2.77
2019-05-26T06:52:15.559Z,2.67
2019-05-26T06:54:48.333Z,2.42
2019-05-26T06:57:20.935Z,2.47
2019-05-26T06:59:53.455Z,2.25
2019-05-26T07:02:25.876Z,2.42
2019-05-26T07:04:58.527Z,2.35
2019-05-26T07:07:31.055Z,2.02
2019-05-26T07:10:04.723Z,2.30
2019-05-26T07:12:37.235Z,2.60
2019-05-26T07:15:10.976Z,2.70
2019-05-26T07:17:43.795Z,2.47
2019-05-26T07:20:16.565Z,2.40
2019-05-26T07:22:49.076Z,2.77
2019-05-26T07:25:21.719Z,2.77
2019-05-26T07:27:55.443Z,2.72
2019-05-26T07:30:27.885Z,2.47
2019-05-26T07:33:00.426Z,2.77
2019-05-26T07:35:33.328Z,2.42
2019-05-26T07:38:06.175Z,2.40
2019-05-26T07:40:41.989Z,2.37
2019-05-26T07:43:14.555Z,2.55
2019-05-26T07:45:47.755Z,2.27
2019-05-26T07:48:20.203Z,2.22
2019-05-26T07:50:52.725Z,1.90
2019-05-26T07:53:25.315Z,2.08
2019-05-26T07:55:57.745Z,2.17
2019-05-26T07:58:30.637Z,2.08
2019-05-26T08:01:03.205Z,2.08
2019-05-26T08:03:42.268Z,2.20
2019-05-26T08:06:31.666Z,3.72
2019-05-26T08:09:08.235Z,2.30
2019-05-26T08:11:48.315Z,2.17
2019-05-26T08:18:00.001Z,2.12
2019-05-26T08:20:33.157Z,2.92
2019-05-26T08:23:05.666Z,2.33
2019-05-26T08:25:38.486Z,2.08
2019-05-26T08:28:14.515Z,2.02
2019-05-26T08:30:48.645Z,2.42
2019-05-26T08:33:23.168Z,2.02
2019-05-26T08:35:56.994Z,2.25
2019-05-26T08:38:29.623Z,2.33
2019-05-26T08:41:04.355Z,2.33
2019-05-26T08:43:42.139Z,2.77
2019-05-26T08:46:30.618Z,2.30
2019-05-26T08:49:09.537Z,2.33
2019-05-26T08:51:49.325Z,2.17
2019-05-26T08:54:31.275Z,2.12
2019-05-26T08:57:28.025Z,2.30
2019-05-26T09:00:21.676Z,2.10
2019-05-26T09:03:07.305Z,2.20
2019-05-26T09:05:44.636Z,2.37
2019-05-26T09:08:17.149Z,2.20
2019-05-26T09:10:49.720Z,2.00
2019-05-26T09:13:22.342Z,2.10
2019-05-26T09:15:55.876Z,2.15
2019-05-26T09:18:29.195Z,2.83
2019-05-26T09:21:01.736Z,2.27
2019-05-26T09:23:34.465Z,2.20
2019-05-26T09:26:07.046Z,2.40
2019-05-26T09:28:39.946Z,2.60
2019-05-26T09:31:12.677Z,1.92
2019-05-26T09:33:45.087Z,2.27
2019-05-26T09:36:18.184Z,2.40
2019-05-26T09:38:50.626Z,2.20
2019-05-26T09:41:23.206Z,2.33
2019-05-26T09:43:55.807Z,3.27
2019-05-26T09:46:28.376Z,4.75
2019-05-26T09:49:01.191Z,3.55
2019-05-26T09:51:34.305Z,2.50
2019-05-26T09:54:06.958Z,2.50
2019-05-26T09:56:39.455Z,2.10
2019-05-26T09:59:12.164Z,2.77
2019-05-26T10:01:44.895Z,2.40
2019-05-26T10:04:17.466Z,2.10
2019-05-26T10:06:50.235Z,2.67
2019-05-26T10:09:24.489Z,2.12
2019-05-26T10:11:57.149Z,2.20
2019-05-26T10:14:29.817Z,1.95
2019-05-26T10:17:02.505Z,2.00
2019-05-26T10:19:35.145Z,2.45
2019-05-26T10:22:07.616Z,2.02
2019-05-26T10:24:40.155Z,2.15
2019-05-26T10:27:12.729Z,2.17
2019-05-26T10:29:46.168Z,2.52
2019-05-26T10:32:18.638Z,2.25
2019-05-26T10:34:51.138Z,2.27
2019-05-26T10:37:23.772Z,2.50
2019-05-26T10:39:56.355Z,2.40
2019-05-26T10:42:28.910Z,2.12
2019-05-26T10:45:03.635Z,2.25
2019-05-26T10:47:36.416Z,2.30
2019-05-26T10:50:09.356Z,2.10
2019-05-26T10:52:42.926Z,2.12
2019-05-26T10:55:15.564Z,2.72
2019-05-26T10:57:48.155Z,2.05
2019-05-26T11:00:20.885Z,2.30
2019-05-26T11:02:53.746Z,3.85
2019-05-26T11:05:26.904Z,4.10
2019-05-26T11:08:00.686Z,7.80
2019-05-26T11:10:33.396Z,3.95
2019-05-26T11:13:06.025Z,2.60
2019-05-26T11:15:39.216Z,2.52
2019-05-26T11:18:11.824Z,1.95
2019-05-26T11:20:45.666Z,2.10
2019-05-26T11:23:19.336Z,2.27
2019-05-26T11:25:51.946Z,2.17
2019-05-26T11:28:24.525Z,2.27
2019-05-26T11:30:57.086Z,2.42
2019-05-26T11:33:29.689Z,2.37
2019-05-26T11:36:02.338Z,2.40
2019-05-26T11:38:34.816Z,2.60
2019-05-26T11:41:07.436Z,2.52
2019-05-26T11:43:40.126Z,2.92
2019-05-26T11:46:16.415Z,2.17
2019-05-26T11:48:46.926Z,2.08
2019-05-26T11:51:20.254Z,2.10
2019-05-26T11:53:53.823Z,2.02
2019-05-26T11:56:26.375Z,2.30
2019-05-26T11:58:59.055Z,2.25
2019-05-26T12:01:31.587Z,2.00
2019-05-26T12:04:04.124Z,1.95
2019-05-26T12:06:37.325Z,2.27
2019-05-26T12:09:10.613Z,1.87
2019-05-26T12:11:43.276Z,2.12
2019-05-26T12:14:15.716Z,2.27
2019-05-26T12:16:48.245Z,2.37
2019-05-26T12:19:20.785Z,2.37
2019-05-26T12:21:53.336Z,2.35
2019-05-26T12:24:25.866Z,2.33
2019-05-26T12:26:58.836Z,2.47
2019-05-26T12:29:31.266Z,2.77
2019-05-26T12:32:03.907Z,2.30
2019-05-26T12:34:36.676Z,2.62
2019-05-26T12:37:09.207Z,2.65
2019-05-26T12:39:41.639Z,2.50
2019-05-26T12:42:16.976Z,2.83
2019-05-26T12:44:50.233Z,2.40
2019-05-26T12:47:22.835Z,2.50
2019-05-26T12:49:55.406Z,2.40
2019-05-26T12:52:27.895Z,2.20
2019-05-26T12:55:00.556Z,2.42
2019-05-26T12:57:33.044Z,2.20
2019-05-26T13:00:05.976Z,2.20
2019-05-26T13:02:39.814Z,2.20
2019-05-26T13:05:12.476Z,2.00
2019-05-26T13:07:44.926Z,2.52
2019-05-26T13:10:18.435Z,2.08
2019-05-26T13:12:51.094Z,1.90
2019-05-26T13:15:24.015Z,2.60
2019-05-26T13:17:57.726Z,2.02
2019-05-26T13:20:30.200Z,2.15
2019-05-26T13:23:02.746Z,2.20
2019-05-26T13:25:35.608Z,2.47
2019-05-26T13:28:08.156Z,2.20
2019-05-26T13:30:41.283Z,1.95
2019-05-26T13:33:13.937Z,1.98
2019-05-26T13:35:47.465Z,2.08
2019-05-26T13:38:20.075Z,2.20
2019-05-26T13:40:52.615Z,2.05
2019-05-26T13:43:25.216Z,2.10
2019-05-26T13:45:57.715Z,1.95
2019-05-26T13:48:30.605Z,1.90
2019-05-26T13:51:03.296Z,2.17
2019-05-26T13:53:36.396Z,2.40
2019-05-26T13:56:08.795Z,2.22
2019-05-26T13:58:41.398Z,1.77
2019-05-26T14:01:13.835Z,2.50
2019-05-26T14:03:46.346Z,2.00
2019-05-26T14:06:18.915Z,2.22
2019-05-26T14:08:51.596Z,2.52
2019-05-26T14:11:24.627Z,2.40
2019-05-26T14:13:58.099Z,2.12
2019-05-26T14:16:31.936Z,2.40
2019-05-26T14:19:05.995Z,2.75
2019-05-26T14:21:38.753Z,2.35
2019-05-26T14:24:11.665Z,2.55
2019-05-26T14:26:44.515Z,2.15
2019-05-26T14:29:17.176Z,1.92
2019-05-26T14:31:52.711Z,1.92
2019-05-26T14:34:24.509Z,2.15
2019-05-26T14:36:57.135Z,2.08
2019-05-26T14:39:29.925Z,2.10
2019-05-26T14:42:02.580Z,2.35
2019-05-26T14:44:35.361Z,2.20
2019-05-26T14:47:08.267Z,2.12
2019-05-26T14:49:41.089Z,1.62
2019-05-26T14:52:13.695Z,1.98
2019-05-26T14:54:46.585Z,1.90
2019-05-26T14:57:19.137Z,1.65
2019-05-26T14:59:52.044Z,1.70
2019-05-26T15:02:24.526Z,1.72
2019-05-26T15:04:57.495Z,1.82
2019-05-26T15:07:31.985Z,1.62
2019-05-26T15:10:05.516Z,1.87
2019-05-26T15:12:38.035Z,1.98
2019-05-26T15:15:10.897Z,1.82
2019-05-26T15:17:43.799Z,2.33
2019-05-26T15:20:17.246Z,1.70
2019-05-26T15:22:51.113Z,1.87
2019-05-26T15:25:23.806Z,1.77
2019-05-26T15:27:56.274Z,1.90
2019-05-26T15:30:28.949Z,1.87
2019-05-26T15:33:01.471Z,1.77
2019-05-26T15:35:34.200Z,2.00
2019-05-26T15:38:06.963Z,1.95
2019-05-26T15:40:39.645Z,1.70
2019-05-26T15:43:12.179Z,1.77
2019-05-26T15:45:44.856Z,2.00
2019-05-26T15:48:17.425Z,1.87
2019-05-26T15:50:49.977Z,1.98
2019-05-26T15:53:22.495Z,2.17
2019-05-26T15:55:55.074Z,1.60
2019-05-26T15:58:27.798Z,1.50
2019-05-26T16:01:00.428Z,1.67
2019-05-26T16:03:33.170Z,1.60
2019-05-26T16:06:05.995Z,1.67
2019-05-26T16:08:39.425Z,1.32
2019-05-26T16:11:12.145Z,1.90
2019-05-26T16:13:44.585Z,1.50
2019-05-26T16:16:17.555Z,1.52
2019-05-26T16:18:50.206Z,1.62
2019-05-26T16:21:27.973Z,1.50
2019-05-26T16:23:57.795Z,2.08
2019-05-26T16:26:30.605Z,1.95
2019-05-26T16:29:03.245Z,1.62
2019-05-26T16:31:35.795Z,1.67
2019-05-26T16:34:08.366Z,1.77
2019-05-26T16:36:41.735Z,1.87
2019-05-26T16:39:14.335Z,2.15
2019-05-26T16:41:46.826Z,1.57
2019-05-26T16:44:19.366Z,1.82
2019-05-26T16:46:56.527Z,1.60
2019-05-26T16:49:26.045Z,1.62
2019-05-26T16:51:58.535Z,1.62
2019-05-26T16:54:31.218Z,1.75
2019-05-26T16:57:03.653Z,1.35
2019-05-26T16:59:36.345Z,1.70
2019-05-26T17:02:10.169Z,2.10
2019-05-26T17:04:42.746Z,1.92
2019-05-26T17:07:15.305Z,1.87
2019-05-26T17:09:47.799Z,1.47
2019-05-26T17:12:20.255Z,1.80
2019-05-26T17:14:53.767Z,1.57
2019-05-26T17:17:26.229Z,1.67
2019-05-26T17:19:58.864Z,1.65
2019-05-26T17:22:32.046Z,1.90
2019-05-26T17:25:05.035Z,1.77
2019-05-26T17:27:37.638Z,1.95
2019-05-26T17:30:11.385Z,1.80
2019-05-26T17:32:45.766Z,2.00
2019-05-26T17:35:18.809Z,2.20
2019-05-26T17:37:52.140Z,2.47
2019-05-26T17:40:24.745Z,2.17
2019-05-26T17:42:57.316Z,2.02
2019-05-26T17:45:29.926Z,2.10
2019-05-26T17:48:02.415Z,2.22
2019-05-26T17:50:34.955Z,2.02
2019-05-26T17:53:08.636Z,2.55
2019-05-26T17:55:41.307Z,2.47
2019-05-26T17:58:15.066Z,2.65
2019-05-26T18:00:47.826Z,2.17
2019-05-26T18:03:20.387Z,1.92
2019-05-26T18:05:53.245Z,2.35
2019-05-26T18:08:25.665Z,2.35
2019-05-26T18:10:58.418Z,2.20
2019-05-26T18:13:31.065Z,2.05
2019-05-26T18:16:03.935Z,2.35
2019-05-26T18:18:36.766Z,2.40
2019-05-26T18:21:10.185Z,1.82
2019-05-26T18:23:42.996Z,2.05
2019-05-26T18:26:15.416Z,2.27
2019-05-26T18:28:47.856Z,2.00
2019-05-26T18:31:22.136Z,2.30
2019-05-26T18:33:54.649Z,2.05
2019-05-26T18:36:27.277Z,2.25
2019-05-26T18:38:59.865Z,2.30
2019-05-26T18:41:32.448Z,2.58
2019-05-26T18:44:05.276Z,2.20
2019-05-26T18:46:37.907Z,2.22
2019-05-26T18:49:10.805Z,2.10
2019-05-26T18:51:43.464Z,2.47
2019-05-26T18:54:16.435Z,2.05
2019-05-26T18:56:49.758Z,2.25
2019-05-26T18:59:22.479Z,3.40
2019-05-26T19:01:54.995Z,6.72
2019-05-26T19:04:27.568Z,9.28
2019-05-26T19:07:00.225Z,7.17
2019-05-26T19:09:32.865Z,7.00
2019-05-26T19:12:06.067Z,7.95
2019-05-26T19:14:38.925Z,6.87
2019-05-26T19:17:11.999Z,7.20
2019-05-26T19:19:44.579Z,7.05
2019-05-26T19:22:17.057Z,8.38
2019-05-26T19:24:49.656Z,8.10
2019-05-26T19:27:22.495Z,9.30
2019-05-26T19:29:54.876Z,9.48
2019-05-26T19:32:27.316Z,8.98
2019-05-26T19:34:59.875Z,9.68
2019-05-26T19:37:32.467Z,9.33
2019-05-26T19:40:05.357Z,9.15
2019-05-26T19:42:38.155Z,7.30
2019-05-26T19:45:10.815Z,9.65
2019-05-26T19:47:44.505Z,4.65
2019-05-26T19:50:18.115Z,5.00
2019-05-26T19:52:50.846Z,4.72
2019-05-26T19:55:23.825Z,3.47
2019-05-26T19:57:56.359Z,3.77
2019-05-26T20:00:29.656Z,3.20
2019-05-26T20:03:02.490Z,3.10
2019-05-26T20:05:34.928Z,3.08
2019-05-26T20:08:07.575Z,3.55
2019-05-26T20:10:40.134Z,2.98
2019-05-26T20:13:12.688Z,3.55
2019-05-26T20:15:46.445Z,2.90
2019-05-26T20:18:20.066Z,2.87
2019-05-26T20:20:52.569Z,3.50
2019-05-26T20:23:26.084Z,3.12
2019-05-26T20:26:01.721Z,3.05
2019-05-26T20:28:34.629Z,3.05
2019-05-26T20:31:07.235Z,3.80
2019-05-26T20:33:40.376Z,3.45
2019-05-26T20:36:13.877Z,3.50
2019-05-26T20:38:46.495Z,2.75
2019-05-26T20:41:21.174Z,3.10
2019-05-26T20:43:55.525Z,3.05
2019-05-26T20:46:28.257Z,2.85
2019-05-26T20:49:00.648Z,3.30
2019-05-26T20:51:34.238Z,3.08
2019-05-26T20:54:06.726Z,3.20
2019-05-26T20:56:39.786Z,3.55
2019-05-26T20:59:12.853Z,3.45
2019-05-26T21:01:45.257Z,3.50
2019-05-26T21:04:18.500Z,3.55
2019-05-26T21:06:52.705Z,3.80
2019-05-26T21:09:25.936Z,3.62
2019-05-26T21:11:58.666Z,3.70
2019-05-26T21:14:31.176Z,4.28
2019-05-26T21:17:03.736Z,4.12
2019-05-26T21:19:36.346Z,3.67
2019-05-26T21:22:08.905Z,4.50
2019-05-26T21:24:42.844Z,4.10
2019-05-26T21:27:15.999Z,4.22
2019-05-26T21:29:48.859Z,4.20
2019-05-26T21:32:21.486Z,5.00
2019-05-26T21:34:54.035Z,4.40
2019-05-26T21:37:29.605Z,4.60
2019-05-26T21:40:04.621Z,4.25
2019-05-26T21:42:37.155Z,4.37
2019-05-26T21:45:09.876Z,4.28
2019-05-26T21:47:42.965Z,4.85
2019-05-26T21:50:15.730Z,4.83
2019-05-26T21:52:48.278Z,4.97
2019-05-26T21:55:21.315Z,5.10
2019-05-26T21:57:54.145Z,5.33
2019-05-26T22:00:29.150Z,5.08
2019-05-26T22:03:03.555Z,5.90
2019-05-26T22:05:36.475Z,5.65
2019-05-26T22:08:08.976Z,5.87
2019-05-26T22:10:41.556Z,5.85
2019-05-26T22:13:14.076Z,5.62
2019-05-26T22:15:46.695Z,5.30
2019-05-26T22:18:19.235Z,5.58
2019-05-26T22:20:51.765Z,6.03
2019-05-26T22:23:24.199Z,5.78
2019-05-26T22:25:56.556Z,5.22
2019-05-26T22:28:29.956Z,5.75
2019-05-26T22:31:03.764Z,5.65
2019-05-26T22:33:36.418Z,5.35
2019-05-26T22:36:09.077Z,5.12
2019-05-26T22:38:41.517Z,5.58
2019-05-26T22:41:14.195Z,5.20
2019-05-26T22:43:46.765Z,5.30
2019-05-26T22:46:20.105Z,5.85
2019-05-26T22:48:52.775Z,5.97
2019-05-26T22:51:25.298Z,5.62
2019-05-26T22:53:57.841Z,5.67
2019-05-26T22:56:30.954Z,5.33
2019-05-26T22:59:03.525Z,6.17
2019-05-26T23:01:36.196Z,5.87
2019-05-26T23:04:08.726Z,5.45
2019-05-26T23:06:41.236Z,5.67
2019-05-26T23:09:13.796Z,5.78
2019-05-26T23:11:46.485Z,5.50
2019-05-26T23:14:19.267Z,6.10
2019-05-26T23:16:51.658Z,5.80
2019-05-26T23:19:24.206Z,5.72
2019-05-26T23:21:56.616Z,6.58
2019-05-26T23:24:29.136Z,6.28
2019-05-26T23:27:03.034Z,5.37
2019-05-26T23:29:35.431Z,6.25
2019-05-26T23:32:07.969Z,5.65
2019-05-26T23:34:40.616Z,5.45
2019-05-26T23:37:13.215Z,6.00
2019-05-26T23:39:45.775Z,4.87
2019-05-26T23:42:18.385Z,5.67
2019-05-26T23:44:51.105Z,5.37
2019-05-26T23:47:24.016Z,5.85
2019-05-26T23:49:56.706Z,5.22
2019-05-26T23:52:29.295Z,5.45
2019-05-26T23:55:02.046Z,5.17
2019-05-26T23:57:34.635Z,5.60
